Time;durP1;ratioP1;P1;durP2;ratioP2;P2;SDS_P1;SDS_P2;PMS_P1;PMS_P2;Temp;Humidity;BMP_temperature;BMP_pressure;BME280_temperature;BME280_humidity;BME280_pressure;Samples;Min_cycle;Max_cycle;Signal;HPM_P1;HPM_P2
2021/12/23 00:01:27;;;;;;;;;;;;;;;-144.99;100.00;52704.94;5047514;28;19981;-67
2021/12/23 00:03:53;;;;;;;;;;;;;;;-144.99;100.00;52672.31;5042370;28;20039;-68
2021/12/23 00:06:20;;;;;;;;;;;;;;;-144.99;100.00;52664.16;5041064;28;19988;-67
2021/12/23 00:08:47;;;;;;;;;;;;;;;-144.99;100.00;52704.94;5047571;28;19981;-65
2021/12/23 00:11:14;;;;;;;;;;;;;;;-144.99;100.00;52700.84;5047592;28;19989;-65
2021/12/23 00:13:48;;;;;;;;;;;;;;;-144.99;100.00;52666.19;5044581;28;20481;-64
2021/12/23 00:16:18;;;;;;;;;;;;;;;-144.99;100.00;52676.38;5047364;28;20003;-65
2021/12/23 00:18:51;;;;;;;;;;;;;;;-144.99;100.00;52692.69;5040213;28;20031;-65
2021/12/23 00:24:03;;;;;;;;;;;;;;;-144.99;100.00;52639.69;5048782;28;20078;-63
2021/12/23 00:26:30;;;;;;;;;;;;;;;-144.99;100.00;52680.47;5047315;28;19981;-63
2021/12/23 00:28:57;;;;;;;;;;;;;;;-144.99;100.00;52668.22;5047794;28;19992;-63
2021/12/23 00:31:23;;;;;;;;;;;;;;;-144.99;100.00;52651.94;5047834;28;20090;-62
2021/12/23 00:33:50;;;;;;;;;;;;;;;-144.99;100.00;52662.13;5048622;28;20001;-67
2021/12/23 00:36:16;;;;;;;;;;;;;;;-144.99;100.00;52684.53;5047860;28;19984;-66
2021/12/23 00:38:47;;;;;;;;;;;;;;;-144.99;100.00;52651.94;5049434;28;20323;-66
2021/12/23 00:41:15;;;;;;;;;;;;;;;-144.99;100.00;52692.69;5048646;28;19989;-64
2021/12/23 00:43:41;;;;;;;;;;;;;;;-144.99;100.00;52676.38;5051810;28;20467;-64
2021/12/23 00:46:08;;;;;;;;;;;;;;;-144.99;100.00;52643.78;5043011;28;19981;-67
2021/12/23 00:48:35;;;;;;;;;;;;;;;-144.99;100.00;52643.78;5067269;28;19984;-64
2021/12/23 00:51:01;;;;;;;;;;;;;;;-144.99;100.00;52658.03;5063015;28;19981;-65
2021/12/23 00:53:35;;;;;;;;;;;;;;;-144.99;100.00;52651.94;5051345;28;19991;-65
2021/12/23 00:56:01;;;;;;;;;;;;;;;-144.99;100.00;52635.63;5046049;28;19973;-65
2021/12/23 00:58:29;;;;;;;;;;;;;;;-144.99;100.00;52680.47;5049375;28;20135;-65
2021/12/23 01:00:57;;;;;;;;;;;;;;;-144.99;100.00;52651.94;5049058;28;19977;-65
2021/12/23 01:03:23;;;;;;;;;;;;;;;-144.99;100.00;52686.59;5049782;28;19981;-64
2021/12/23 01:05:50;;;;;;;;;;;;;;;-144.99;100.00;52680.47;5048429;28;19973;-65
2021/12/23 01:08:19;;;;;;;;;;;;;;;-144.99;100.00;52645.81;5049098;28;19985;-63
2021/12/23 01:10:45;;;;;;;;;;;;;;;-144.99;100.00;52684.53;5049093;28;20076;-63
2021/12/23 01:13:14;;;;;;;;;;;;;;;-144.99;100.00;52668.22;5055272;28;20028;-63
2021/12/23 01:16:06;;;;;;;;;;;;;;;-144.99;100.00;52664.16;5047819;28;20004;-63
2021/12/23 01:18:37;;;;;;;;;;;;;;;-144.99;100.00;52676.38;5070417;22;19996;-62
2021/12/23 01:21:14;;;;;;;;;;;;;;;-144.99;100.00;52658.03;5068173;28;19988;-62
2021/12/23 01:23:43;;;;;;;;;;;;;;;-144.99;100.00;52682.50;5067920;28;20001;-62
2021/12/23 01:26:09;;;;;;;;;;;;;;;-144.99;100.00;52680.47;5066676;28;20080;-61
2021/12/23 01:28:36;;;;;;;;;;;;;;;-144.99;100.00;52660.09;5059258;28;20012;-63
2021/12/23 01:31:03;;;;;;;;;;;;;;;-144.99;100.00;52668.22;5067483;28;19999;-63
2021/12/23 01:33:30;;;;;;;;;;;;;;;-144.99;100.00;52656.00;5067232;28;20449;-63
2021/12/23 01:35:57;;;;;;;;;;;;;;;-144.99;100.00;52668.22;5067772;28;19977;-65
2021/12/23 01:38:23;;;;;;;;;;;;;;;-144.99;100.00;52635.63;5058977;28;20079;-63
2021/12/23 01:40:49;;;;;;;;;;;;;;;-144.99;100.00;52684.53;5064871;28;20086;-64
2021/12/23 01:43:17;;;;;;;;;;;;;;;-144.99;100.00;52700.84;5067379;28;20341;-65
2021/12/23 01:45:44;;;;;;;;;;;;;;;-144.99;100.00;52668.22;5066619;28;19976;-66
2021/12/23 01:48:12;;;;;;;;;;;;;;;-144.99;100.00;52700.84;4709316;28;10000064;-64
2021/12/23 01:50:39;;;;;;;;;;;;;;;-144.99;100.00;52662.13;5063316;28;20429;-65
2021/12/23 01:53:06;;;;;;;;;;;;;;;-144.99;100.00;52672.31;5066902;28;20429;-62
2021/12/23 01:55:32;;;;;;;;;;;;;;;-144.99;100.00;52666.19;5066407;28;20001;-62
2021/12/23 01:57:58;;;;;;;;;;;;;;;-144.99;100.00;52627.47;5066676;28;20003;-62
2021/12/23 02:00:26;;;;;;;;;;;;;;;-144.99;100.00;52668.22;5066791;28;19983;-63
2021/12/23 02:02:53;;;;;;;;;;;;;;;-144.99;100.00;52656.00;5069660;28;19989;-62
2021/12/23 02:05:21;;;;;;;;;;;;;;;-144.99;100.00;52680.47;5069318;28;20421;-63
2021/12/23 02:07:48;;;;;;;;;;;;;;;-144.99;100.00;52670.28;5064527;28;19973;-63
2021/12/23 02:10:16;;;;;;;;;;;;;;;-144.99;100.00;52670.28;5066863;28;20472;-64
2021/12/23 02:12:44;;;;;;;;;;;;;;;-144.99;100.00;52680.47;5070141;28;20003;-61
2021/12/23 02:15:11;;;;;;;;;;;;;;;-144.99;100.00;52662.13;5069352;28;20001;-60
2021/12/23 02:17:38;;;;;;;;;;;;;;;-144.99;100.00;52647.84;5068671;28;19988;-61
2021/12/23 02:20:07;;;;;;;;;;;;;;;-144.99;100.00;52651.94;5068767;28;19979;-61
2021/12/23 02:22:33;;;;;;;;;;;;;;;-144.99;100.00;52668.22;5069568;28;19962;-60
2021/12/23 02:24:59;;;;;;;;;;;;;;;-144.99;100.00;52694.72;5069007;28;19993;-61
2021/12/23 02:27:26;;;;;;;;;;;;;;;-144.99;100.00;52625.44;5069684;28;20002;-64
2021/12/23 02:29:52;;;;;;;;;;;;;;;-144.99;100.00;52635.63;5065542;28;19992;-60
2021/12/23 02:32:18;;;;;;;;;;;;;;;-144.99;100.00;52680.47;5069357;28;20063;-60
2021/12/23 02:34:45;;;;;;;;;;;;;;;-144.99;100.00;52639.69;5068514;28;20007;-59
2021/12/23 02:37:14;;;;;;;;;;;;;;;-144.99;100.00;52696.78;5069132;28;19988;-59
2021/12/23 02:39:41;;;;;;;;;;;;;;;-144.99;100.00;52676.38;5066856;28;19977;-59
2021/12/23 02:42:08;;;;;;;;;;;;;;;-144.99;100.00;52670.28;5068639;28;20353;-60
2021/12/23 02:44:34;;;;;;;;;;;;;;;-144.99;100.00;52684.53;5068586;28;20087;-62
2021/12/23 02:47:00;;;;;;;;;;;;;;;-144.99;100.00;52688.63;5068906;28;19981;-60
2021/12/23 02:49:27;;;;;;;;;;;;;;;-144.99;100.00;52686.59;5067762;22;20384;-76
2021/12/23 02:51:53;;;;;;;;;;;;;;;-144.99;100.00;52656.00;5044343;28;20337;-75
2021/12/23 02:54:21;;;;;;;;;;;;;;;-144.99;100.00;52660.09;5049108;28;19993;-74
2021/12/23 02:56:47;;;;;;;;;;;;;;;-144.99;100.00;52651.94;5051806;28;19988;-72
2021/12/23 02:59:13;;;;;;;;;;;;;;;-144.99;100.00;52639.69;5052895;28;20017;-74
2021/12/23 03:01:40;;;;;;;;;;;;;;;-144.99;100.00;52653.97;5049786;28;19981;-76
2021/12/23 03:04:06;;;;;;;;;;;;;;;-144.99;100.00;52623.38;5049627;28;19981;-76
2021/12/23 03:06:32;;;;;;;;;;;;;;;-144.99;100.00;52684.53;5048028;28;19989;-76
2021/12/23 03:09:00;;;;;;;;;;;;;;;-144.99;100.00;52660.09;5048256;28;20389;-76
2021/12/23 03:11:29;;;;;;;;;;;;;;;-144.99;100.00;52688.63;5050247;28;20349;-76
2021/12/23 03:13:56;;;;;;;;;;;;;;;-144.99;100.00;52684.53;5056277;28;20363;-76
2021/12/23 03:16:23;;;;;;;;;;;;;;;-144.99;100.00;52651.94;5046678;28;19997;-75
2021/12/23 03:18:50;;;;;;;;;;;;;;;-144.99;100.00;52680.47;5047101;28;20453;-74
2021/12/23 03:21:17;;;;;;;;;;;;;;;-144.99;100.00;52647.84;5050541;28;20022;-75
2021/12/23 03:23:44;;;;;;;;;;;;;;;-144.99;100.00;52668.22;5052339;28;20238;-74
2021/12/23 03:26:10;;;;;;;;;;;;;;;-144.99;100.00;52656.00;5055423;28;20331;-76
2021/12/23 03:28:38;;;;;;;;;;;;;;;-144.99;100.00;52627.47;5046010;28;20477;-75
2021/12/23 03:31:05;;;;;;;;;;;;;;;-144.99;100.00;52643.78;5046392;28;19985;-76
2021/12/23 03:33:31;;;;;;;;;;;;;;;-144.99;100.00;52656.00;5051380;28;19940;-75
2021/12/23 03:35:57;;;;;;;;;;;;;;;-144.99;100.00;52664.16;5053848;28;20095;-74
2021/12/23 03:38:25;;;;;;;;;;;;;;;-144.99;100.00;52668.22;5045005;28;20493;-72
2021/12/23 03:40:51;;;;;;;;;;;;;;;-144.99;100.00;52651.94;5045395;28;19971;-74
2021/12/23 03:43:17;;;;;;;;;;;;;;;-144.99;100.00;52674.34;5045388;28;19929;-75
2021/12/23 03:45:45;;;;;;;;;;;;;;;-144.99;100.00;52678.44;5046571;28;20049;-72
2021/12/23 03:48:12;;;;;;;;;;;;;;;-144.99;100.00;52656.00;5055502;28;19997;-75
2021/12/23 03:50:38;;;;;;;;;;;;;;;-144.99;100.00;52664.16;5054571;28;19977;-73
2021/12/23 03:53:05;;;;;;;;;;;;;;;-144.99;100.00;52688.63;5045935;28;20448;-73
2021/12/23 03:55:31;;;;;;;;;;;;;;;-144.99;100.00;52700.84;5046091;28;19993;-74
2021/12/23 03:57:57;;;;;;;;;;;;;;;-144.99;100.00;52668.22;5054518;28;20024;-75
2021/12/23 04:00:24;;;;;;;;;;;;;;;-144.99;100.00;52672.31;5046006;28;20470;-73
2021/12/23 04:02:52;;;;;;;;;;;;;;;-144.99;100.00;52676.38;5046184;28;19977;-75
2021/12/23 04:05:20;;;;;;;;;;;;;;;-144.99;100.00;52627.47;5044766;28;19981;-75
2021/12/23 04:07:46;;;;;;;;;;;;;;;-144.99;100.00;52643.78;5052457;28;19993;-76
2021/12/23 04:10:14;;;;;;;;;;;;;;;-144.99;100.00;52660.09;5044847;28;20435;-75
2021/12/23 04:12:41;;;;;;;;;;;;;;;-144.99;100.00;52656.00;5047028;28;19988;-76
2021/12/23 04:15:07;;;;;;;;;;;;;;;-144.99;100.00;52684.53;5045833;28;20431;-72
2021/12/23 04:17:34;;;;;;;;;;;;;;;-144.99;100.00;52666.19;5072141;28;19981;-75
2021/12/23 04:20:14;;;;;;;;;;;;;;;-144.99;100.00;52662.13;5070003;28;20004;-73
2021/12/23 04:22:41;;;;;;;;;;;;;;;-144.99;100.00;52660.09;5049156;28;20011;-73
2021/12/23 04:25:07;;;;;;;;;;;;;;;-144.99;100.00;52676.38;5045828;28;19981;-72
2021/12/23 04:27:34;;;;;;;;;;;;;;;-144.99;100.00;52660.09;5055500;28;20396;-73
2021/12/23 04:30:00;;;;;;;;;;;;;;;-144.99;100.00;52696.78;5060735;28;19977;-74
2021/12/23 04:32:26;;;;;;;;;;;;;;;-144.99;100.00;52670.28;5049015;28;19992;-74
2021/12/23 04:34:52;;;;;;;;;;;;;;;-144.99;100.00;52651.94;5048169;28;19997;-74
2021/12/23 04:37:20;;;;;;;;;;;;;;;-144.99;100.00;52696.78;5056027;28;20825;-74
2021/12/23 04:39:46;;;;;;;;;;;;;;;-144.99;100.00;52660.09;5055112;28;19984;-74
2021/12/23 04:42:13;;;;;;;;;;;;;;;-144.99;100.00;52680.47;5048762;28;19993;-74
2021/12/23 04:44:40;;;;;;;;;;;;;;;-144.99;100.00;52660.09;5048861;28;19996;-77
2021/12/23 04:47:06;;;;;;;;;;;;;;;-144.99;100.00;52647.84;5049227;28;20421;-77
2021/12/23 04:49:32;;;;;;;;;;;;;;;-144.99;100.00;52668.22;5056897;28;20001;-78
2021/12/23 04:51:59;;;;;;;;;;;;;;;-144.99;100.00;52684.53;5054269;28;19977;-76
2021/12/23 04:54:26;;;;;;;;;;;;;;;-144.99;100.00;52660.09;5048225;28;19993;-76
2021/12/23 04:56:52;;;;;;;;;;;;;;;-144.99;100.00;52692.69;5046898;28;19989;-77
2021/12/23 04:59:20;;;;;;;;;;;;;;;-144.99;100.00;52664.16;5060084;28;19993;-78
2021/12/23 05:01:47;;;;;;;;;;;;;;;-144.99;100.00;52664.16;5052131;28;19978;-75
2021/12/23 05:04:13;;;;;;;;;;;;;;;-144.99;100.00;52656.00;5051166;28;20027;-74
2021/12/23 05:06:40;;;;;;;;;;;;;;;-144.99;100.00;52635.63;5051599;28;19992;-73
2021/12/23 05:09:09;;;;;;;;;;;;;;;-144.99;100.00;52643.78;5053201;28;20511;-77
2021/12/23 05:11:37;;;;;;;;;;;;;;;-144.99;100.00;52676.38;5049646;28;20347;-77
2021/12/23 05:14:03;;;;;;;;;;;;;;;-144.99;100.00;52651.94;5059218;28;20001;-73
2021/12/23 05:16:29;;;;;;;;;;;;;;;-144.99;100.00;52647.84;5050366;28;20465;-76
2021/12/23 05:18:56;;;;;;;;;;;;;;;-144.99;100.00;52676.38;5048250;28;19989;-75
2021/12/23 05:21:22;;;;;;;;;;;;;;;-144.99;100.00;52662.13;5058166;28;19981;-74
2021/12/23 05:23:48;;;;;;;;;;;;;;;-144.99;100.00;52651.94;5047552;28;19992;-77
2021/12/23 05:26:15;;;;;;;;;;;;;;;-144.99;100.00;52684.53;5049123;28;20316;-76
2021/12/23 05:28:43;;;;;;;;;;;;;;;-144.99;100.00;52674.34;5054254;28;20000;-76
2021/12/23 05:31:09;;;;;;;;;;;;;;;-144.99;100.00;52672.31;5053446;28;19977;-76
2021/12/23 05:33:35;;;;;;;;;;;;;;;-144.99;100.00;52639.69;5047005;28;20600;-78
2021/12/23 05:36:02;;;;;;;;;;;;;;;-144.99;100.00;52651.94;5054448;28;19997;-76
2021/12/23 05:38:28;;;;;;;;;;;;;;;-144.99;100.00;52643.78;5045142;28;19989;-75
2021/12/23 05:40:54;;;;;;;;;;;;;;;-144.99;100.00;52635.63;5056718;28;19996;-75
2021/12/23 05:43:20;;;;;;;;;;;;;;;-144.99;100.00;52660.09;5057311;28;19987;-75
2021/12/23 05:45:48;;;;;;;;;;;;;;;-144.99;100.00;52660.09;5048005;28;20017;-76
2021/12/23 05:48:15;;;;;;;;;;;;;;;-144.99;100.00;52627.47;5048153;28;20465;-75
2021/12/23 05:50:41;;;;;;;;;;;;;;;-144.99;100.00;52692.69;5059970;28;19984;-73
2021/12/23 05:53:07;;;;;;;;;;;;;;;-144.99;100.00;52686.59;5057434;28;19981;-76
2021/12/23 05:55:34;;;;;;;;;;;;;;;-144.99;100.00;52674.34;5045174;28;20377;-76
2021/12/23 05:58:00;;;;;;;;;;;;;;;-144.99;100.00;52696.78;5047616;28;20008;-73
2021/12/23 06:00:28;;;;;;;;;;;;;;;-144.99;100.00;52619.31;5048990;28;20335;-76
2021/12/23 06:02:56;;;;;;;;;;;;;;;-144.99;100.00;52704.94;5060563;28;19981;-74
2021/12/23 06:05:23;;;;;;;;;;;;;;;-144.99;100.00;52688.63;5048559;28;19981;-75
2021/12/23 06:07:50;;;;;;;;;;;;;;;-144.99;100.00;52656.00;5047273;28;20183;-71
2021/12/23 06:10:16;;;;;;;;;;;;;;;-144.99;100.00;52696.78;5048563;28;20000;-75
2021/12/23 06:12:43;;;;;;;;;;;;;;;-144.99;100.00;52696.78;5051037;28;19981;-74
2021/12/23 06:15:10;;;;;;;;;;;;;;;-144.99;100.00;52633.59;5045934;28;19985;-73
2021/12/23 06:17:37;;;;;;;;;;;;;;;-144.99;100.00;52668.22;5046606;28;20493;-73
2021/12/23 06:20:05;;;;;;;;;;;;;;;-144.99;100.00;52682.50;5044566;28;19997;-72
2021/12/23 06:22:34;;;;;;;;;;;;;;;-144.99;100.00;52656.00;5040450;28;19973;-75
2021/12/23 06:25:00;;;;;;;;;;;;;;;-144.99;100.00;52651.94;4690101;28;10000439;-75
2021/12/23 06:27:27;;;;;;;;;;;;;;;-144.99;100.00;52668.22;5043684;28;20378;-74
2021/12/23 06:29:53;;;;;;;;;;;;;;;-144.99;100.00;52643.78;5042226;28;20451;-74
2021/12/23 06:32:20;;;;;;;;;;;;;;;-144.99;100.00;52656.00;5049862;28;20235;-76
2021/12/23 06:34:46;;;;;;;;;;;;;;;-144.99;100.00;52623.38;5049471;28;20067;-76
2021/12/23 06:37:14;;;;;;;;;;;;;;;-144.99;100.00;52660.09;5046509;28;20004;-76
2021/12/23 06:39:40;;;;;;;;;;;;;;;-144.99;100.00;52651.94;5049308;28;19985;-76
2021/12/23 06:42:08;;;;;;;;;;;;;;;-144.99;100.00;52692.69;5052535;28;19981;-79
2021/12/23 06:44:34;;;;;;;;;;;;;;;-144.99;100.00;52692.69;5071422;28;19996;-76
2021/12/23 06:47:02;;;;;;;;;;;;;;;-144.99;100.00;52651.94;5046601;28;19981;-76
2021/12/23 06:49:31;;;;;;;;;;;;;;;-144.99;100.00;52688.63;5056585;28;20007;-73
2021/12/23 06:51:57;;;;;;;;;;;;;;;-144.99;100.00;52676.38;5044895;28;19981;-75
2021/12/23 06:54:25;;;;;;;;;;;;;;;-144.99;100.00;52684.53;5047050;28;19988;-75
2021/12/23 06:56:51;;;;;;;;;;;;;;;-144.99;100.00;52651.94;5045132;28;20031;-75
2021/12/23 06:59:18;;;;;;;;;;;;;;;-144.99;100.00;52684.53;5042108;28;20518;-75
2021/12/23 07:01:47;;;;;;;;;;;;;;;-144.99;100.00;52672.31;5039342;28;20399;-76
2021/12/23 07:04:15;;;;;;;;;;;;;;;-144.99;100.00;52668.22;5044261;28;20030;-76
2021/12/23 07:06:47;;;;;;;;;;;;;;;-144.99;100.00;52668.22;5052917;28;20446;-74
2021/12/23 07:09:14;;;;;;;;;;;;;;;-144.99;100.00;52668.22;5041512;28;20007;-76
2021/12/23 07:11:41;;;;;;;;;;;;;;;-144.99;100.00;52656.00;5042243;28;19981;-74
2021/12/23 07:14:08;;;;;;;;;;;;;;;-144.99;100.00;52656.00;5043525;28;20186;-76
2021/12/23 07:16:37;;;;;;;;;;;;;;;-144.99;100.00;52668.22;5054164;28;20089;-74
2021/12/23 07:19:04;;;;;;;;;;;;;;;-144.99;100.00;52684.53;5077297;22;20514;-78
2021/12/23 07:21:30;;;;;;;;;;;;;;;-144.99;100.00;52680.47;5070177;28;19981;-77
2021/12/23 07:23:56;;;;;;;;;;;;;;;-144.99;100.00;52639.69;5057946;28;20004;-77
2021/12/23 07:26:23;;;;;;;;;;;;;;;-144.99;100.00;52700.84;5065128;28;19977;-78
2021/12/23 07:28:51;;;;;;;;;;;;;;;-144.99;100.00;52656.00;5064502;28;20190;-75
2021/12/23 07:31:17;;;;;;;;;;;;;;;-144.99;100.00;52688.63;5065741;28;20455;-77
2021/12/23 07:33:43;;;;;;;;;;;;;;;-144.99;100.00;52676.38;5064629;28;19988;-77
2021/12/23 07:36:10;;;;;;;;;;;;;;;-144.99;100.00;52682.50;5062766;28;20012;-76
2021/12/23 07:38:36;;;;;;;;;;;;;;;-144.99;100.00;52664.16;5064279;28;19996;-81
2021/12/23 07:41:03;;;;;;;;;;;;;;;-144.99;100.00;52635.63;5069432;28;20033;-80
2021/12/23 07:43:44;;;;;;;;;;;;;;;-144.99;100.00;52631.53;5068845;28;20032;-76
2021/12/23 07:46:12;;;;;;;;;;;;;;;-144.99;100.00;52639.69;5064081;28;19981;-80
2021/12/23 07:48:38;;;;;;;;;;;;;;;-144.99;100.00;52672.31;5064394;28;20004;-78
2021/12/23 07:51:05;;;;;;;;;;;;;;;-144.99;100.00;52692.69;5067328;28;19985;-76
2021/12/23 07:53:31;;;;;;;;;;;;;;;-144.99;100.00;52668.22;5068003;28;20374;-78
2021/12/23 07:55:58;;;;;;;;;;;;;;;-144.99;100.00;52688.63;5065714;28;19993;-76
2021/12/23 07:58:24;;;;;;;;;;;;;;;-144.99;100.00;52643.78;5062691;28;19993;-77
2021/12/23 08:00:51;;;;;;;;;;;;;;;-144.99;100.00;52633.59;5069596;28;19977;-78
2021/12/23 08:03:18;;;;;;;;;;;;;;;-144.99;100.00;52680.47;5070158;28;19981;-77
2021/12/23 08:05:45;;;;;;;;;;;;;;;-144.99;100.00;52678.44;5068577;28;19984;-78
2021/12/23 08:08:11;;;;;;;;;;;;;;;-144.99;100.00;52660.09;5069135;28;20580;-77
2021/12/23 08:10:37;;;;;;;;;;;;;;;-144.99;100.00;52664.16;5068649;28;20162;-78
2021/12/23 08:13:04;;;;;;;;;;;;;;;-144.99;100.00;52651.94;5069182;28;20156;-79
2021/12/23 08:15:30;;;;;;;;;;;;;;;-144.99;100.00;52656.00;5070401;28;19985;-77
2021/12/23 08:17:56;;;;;;;;;;;;;;;-144.99;100.00;52656.00;5069281;28;20001;-77
2021/12/23 08:20:24;;;;;;;;;;;;;;;-144.99;100.00;52643.78;5069392;28;19988;-78
2021/12/23 08:22:50;;;;;;;;;;;;;;;-144.99;100.00;52680.47;5067085;28;19977;-77
2021/12/23 08:25:17;;;;;;;;;;;;;;;-144.99;100.00;52682.50;5066112;28;20568;-78
2021/12/23 08:27:43;;;;;;;;;;;;;;;-144.99;100.00;52635.63;5069310;28;19988;-79
2021/12/23 08:30:10;;;;;;;;;;;;;;;-144.99;100.00;52676.38;5068105;28;20406;-81
2021/12/23 08:32:37;;;;;;;;;;;;;;;-144.99;100.00;52639.69;5068337;28;19985;-79
2021/12/23 08:35:04;;;;;;;;;;;;;;;-144.99;100.00;52682.50;5065720;28;20455;-79
2021/12/23 08:37:32;;;;;;;;;;;;;;;-144.99;100.00;52656.00;5068342;28;20548;-78
2021/12/23 08:39:58;;;;;;;;;;;;;;;-144.99;100.00;52643.78;5067535;28;20004;-78
2021/12/23 08:42:25;;;;;;;;;;;;;;;-144.99;100.00;52668.22;5068874;28;19992;-80
2021/12/23 08:44:51;;;;;;;;;;;;;;;-144.99;100.00;52676.38;5066200;28;19983;-79
2021/12/23 08:47:18;;;;;;;;;;;;;;;-144.99;100.00;52686.59;5068420;28;19960;-79
2021/12/23 08:49:45;;;;;;;;;;;;;;;-144.99;100.00;52631.53;5067900;28;20251;-79
2021/12/23 08:52:12;;;;;;;;;;;;;;;-144.99;100.00;52668.22;5068067;28;20006;-78
2021/12/23 08:54:42;;;;;;;;;;;;;;;-144.99;100.00;52623.38;5064925;28;19984;-75
2021/12/23 08:57:08;;;;;;;;;;;;;;;-144.99;100.00;52664.16;5067488;28;20001;-76
2021/12/23 08:59:35;;;;;;;;;;;;;;;-144.99;100.00;52700.84;5067006;28;19997;-76
2021/12/23 09:02:01;;;;;;;;;;;;;;;-144.99;100.00;52668.22;5063052;28;20004;-77
2021/12/23 09:04:28;;;;;;;;;;;;;;;-144.99;100.00;52641.72;5066359;28;20083;-76
2021/12/23 09:06:54;;;;;;;;;;;;;;;-144.99;100.00;52611.16;5067743;28;19992;-75
2021/12/23 09:09:21;;;;;;;;;;;;;;;-144.99;100.00;52639.69;5066729;28;20034;-75
2021/12/23 09:11:49;;;;;;;;;;;;;;;-144.99;100.00;52637.66;5066188;28;19976;-76
2021/12/23 09:14:15;;;;;;;;;;;;;;;-144.99;100.00;52645.81;5069226;28;19987;-78
2021/12/23 09:16:42;;;;;;;;;;;;;;;-144.99;100.00;52647.84;5075665;28;19968;-77
2021/12/23 09:19:09;;;;;;;;;;;;;;;-144.99;100.00;52660.09;5062158;28;20001;-76
2021/12/23 09:21:36;;;;;;;;;;;;;;;-144.99;100.00;52651.94;5068098;28;20028;-77
2021/12/23 09:24:03;;;;;;;;;;;;;;;-144.99;100.00;52621.34;5068367;28;20064;-77
2021/12/23 09:26:33;;;;;;;;;;;;;;;-144.99;100.00;52676.38;5069122;28;19984;-76
2021/12/23 09:29:07;;;;;;;;;;;;;;;-144.99;100.00;52660.09;5070658;28;20336;-75
2021/12/23 09:34:17;;;;;;;;;;;;;;;-144.99;100.00;52627.47;5068727;28;19987;-76
2021/12/23 09:36:44;;;;;;;;;;;;;;;-144.99;100.00;52645.81;5065548;28;20829;-77
2021/12/23 09:39:12;;;;;;;;;;;;;;;-144.99;100.00;52619.31;5065764;28;20119;-77
2021/12/23 09:41:39;;;;;;;;;;;;;;;-144.99;100.00;52645.81;5067881;28;19981;-77
2021/12/23 09:44:08;;;;;;;;;;;;;;;-144.99;100.00;52643.78;5066199;28;20596;-77
2021/12/23 09:46:35;;;;;;;;;;;;;;;-144.99;100.00;52668.22;5065651;28;20005;-77
2021/12/23 09:49:02;;;;;;;;;;;;;;;-144.99;100.00;52613.19;5070393;28;20076;-77
2021/12/23 09:51:30;;;;;;;;;;;;;;;-144.99;100.00;52637.66;5069903;28;20000;-77
2021/12/23 09:53:58;;;;;;;;;;;;;;;-144.99;100.00;52627.47;5066395;28;19981;-76
2021/12/23 09:56:24;;;;;;;;;;;;;;;-144.99;100.00;52664.16;5065886;28;19985;-74
2021/12/23 09:58:51;;;;;;;;;;;;;;;-144.99;100.00;52664.16;5066481;28;19996;-77
2021/12/23 10:01:19;;;;;;;;;;;;;;;-144.99;100.00;52621.34;5065082;28;19977;-76
2021/12/23 10:03:45;;;;;;;;;;;;;;;-144.99;100.00;52627.47;5064908;28;20158;-75
2021/12/23 10:06:12;;;;;;;;;;;;;;;-144.99;100.00;52619.31;5066450;28;20373;-75
2021/12/23 10:08:40;;;;;;;;;;;;;;;-144.99;100.00;52664.16;5062489;28;20087;-78
2021/12/23 10:11:13;;;;;;;;;;;;;;;-144.99;100.00;52607.09;5065711;28;20068;-78
2021/12/23 10:30:26;;;;;;;;;;;;;;;-144.99;100.00;52631.53;5055913;28;20043;-76
2021/12/23 10:38:24;;;;;;;;;;;;;;;-144.99;100.00;52672.31;5073581;28;20273;-76
2021/12/23 10:40:52;;;;;;;;;;;;;;;-144.99;100.00;52676.38;5074991;28;19981;-77
2021/12/23 10:43:26;;;;;;;;;;;;;;;-144.99;100.00;52660.09;5074798;28;20032;-76
2021/12/23 10:45:56;;;;;;;;;;;;;;;-144.99;100.00;52651.94;5075130;28;20113;-75
2021/12/23 10:48:25;;;;;;;;;;;;;;;-144.99;100.00;52682.50;5073089;28;19993;-75
2021/12/23 10:50:58;;;;;;;;;;;;;;;-144.99;100.00;52627.47;5075885;28;20324;-77
2021/12/23 10:53:39;;;;;;;;;;;;;;;-144.99;100.00;52619.31;5077179;28;19988;-76
2021/12/23 10:59:01;;;;;;;;;;;;;;;-144.99;100.00;52641.72;5075070;28;20090;-75
2021/12/23 11:01:27;;;;;;;;;;;;;;;-144.99;99.79;52635.63;5072150;28;19976;-75
2021/12/23 11:04:00;;;;;;;;;;;;;;;-144.99;99.71;52656.00;5074014;28;20068;-75
2021/12/23 11:06:31;;;;;;;;;;;;;;;-144.99;99.60;52656.00;5075151;28;19985;-78
2021/12/23 11:09:13;;;;;;;;;;;;;;;-144.99;99.44;52680.47;5065259;28;20028;-79
2021/12/23 11:12:10;;;;;;;;;;;;;;;-144.99;99.80;52643.78;5064969;28;20026;-78
2021/12/23 11:29:13;;;;;;;;;;;;;;;-144.99;97.93;52637.66;5057849;28;20027;-79
2021/12/23 11:37:24;;;;;;;;;;;;;;;-144.99;97.65;52627.47;5066897;28;20003;-78
2021/12/23 11:40:06;;;;;;;;;;;;;;;-144.99;97.62;52647.84;5065200;28;20005;-78
2021/12/23 11:42:40;;;;;;;;;;;;;;;-144.99;98.23;52637.66;5061660;28;20035;-77
2021/12/23 11:45:07;;;;;;;;;;;;;;;-144.99;98.49;52660.09;5065352;28;20469;-78
2021/12/23 11:47:33;;;;;;;;;;;;;;;-144.99;98.15;52656.00;5064261;28;19977;-76
2021/12/23 11:50:00;;;;;;;;;;;;;;;-144.99;98.14;52684.53;5061895;28;19993;-78
2021/12/23 11:52:28;;;;;;;;;;;;;;;-144.99;98.33;52658.03;5065028;28;19983;-77
2021/12/23 11:54:55;;;;;;;;;;;;;;;-144.99;98.46;52653.97;5062334;28;19984;-77
2021/12/23 11:57:25;;;;;;;;;;;;;;;-144.99;98.35;52684.53;5063192;28;20000;-79
2021/12/23 12:00:01;;;;;;;;;;;;;;;-144.99;98.54;52643.78;5060452;28;20091;-77
2021/12/23 12:02:29;;;;;;;;;;;;;;;-144.99;98.05;52656.00;5061651;28;19977;-77
2021/12/23 12:04:59;;;;;;;;;;;;;;;-144.99;98.25;52668.22;5063572;28;19977;-82
2021/12/23 12:07:25;;;;;;;;;;;;;;;-144.99;98.32;52684.53;5064380;28;19977;-80
2021/12/23 12:09:57;;;;;;;;;;;;;;;-144.99;98.65;52658.03;5062347;28;20005;-78
2021/12/23 12:12:24;;;;;;;;;;;;;;;-144.99;98.41;52635.63;5060948;28;20442;-79
2021/12/23 12:14:51;;;;;;;;;;;;;;;-144.99;98.18;52690.66;5057613;28;19977;-78
2021/12/23 12:17:35;;;;;;;;;;;;;;;-144.99;98.63;52647.84;5066040;28;20377;-78
2021/12/23 12:20:03;;;;;;;;;;;;;;;-144.99;98.55;52656.00;5064718;28;20010;-79
2021/12/23 12:22:53;;;;;;;;;;;;;;;-144.99;98.51;52631.53;5058089;28;20431;-76
2021/12/23 12:25:34;;;;;;;;;;;;;;;-144.99;99.20;52603.00;5057703;28;20075;-79
2021/12/23 12:28:13;;;;;;;;;;;;;;;-144.99;99.13;52623.38;5053688;28;20284;-79
2021/12/23 12:30:41;;;;;;;;;;;;;;;-144.99;98.94;52672.31;5063839;28;19987;-79
2021/12/23 12:33:11;;;;;;;;;;;;;;;-144.99;98.67;52664.16;5064886;28;19988;-78
2021/12/23 12:35:37;;;;;;;;;;;;;;;-144.99;98.64;52660.09;5061832;28;20433;-77
2021/12/23 12:38:11;;;;;;;;;;;;;;;-144.99;98.77;52639.69;5064738;28;19996;-75
2021/12/23 12:40:56;;;;;;;;;;;;;;;-144.99;98.63;52639.69;5065274;28;20435;-78
2021/12/23 12:43:33;;;;;;;;;;;;;;;-144.99;98.78;52692.69;5066578;28;19989;-78
2021/12/23 12:46:00;;;;;;;;;;;;;;;-144.99;98.26;52676.38;5059487;28;19972;-77
2021/12/23 12:48:41;;;;;;;;;;;;;;;-144.99;98.19;52647.84;5071339;28;20024;-75
2021/12/23 12:51:17;;;;;;;;;;;;;;;-144.99;97.93;52676.38;5074639;28;19985;-77
2021/12/23 12:53:51;;;;;;;;;;;;;;;-144.99;98.47;52623.38;5067556;28;19981;-77
2021/12/23 12:56:21;;;;;;;;;;;;;;;-144.99;98.67;52615.25;5067791;28;20046;-77
2021/12/23 12:58:52;;;;;;;;;;;;;;;-144.99;98.79;52643.78;5066529;28;20103;-75
2021/12/23 13:01:29;;;;;;;;;;;;;;;-144.99;99.48;52660.09;5065235;28;19980;-76
2021/12/23 13:03:56;;;;;;;;;;;;;;;-144.99;99.24;52656.00;5066050;28;19980;-76
2021/12/23 13:06:22;;;;;;;;;;;;;;;-144.99;100.00;52664.16;5067016;28;20175;-79
2021/12/23 13:08:48;;;;;;;;;;;;;;;-144.99;100.00;52676.38;5063403;28;19993;-76
2021/12/23 13:11:20;;;;;;;;;;;;;;;-144.99;100.00;52676.38;5066450;28;19981;-78
2021/12/23 13:13:52;;;;;;;;;;;;;;;-144.99;100.00;52643.78;5062422;28;20403;-78